createdAt,value
2018-11-01T00:00:07.829Z,99.90
2018-11-01T00:02:36.303Z,99.90
2018-11-01T00:05:04.766Z,99.90
2018-11-01T00:07:33.354Z,99.90
2018-11-01T00:10:01.856Z,99.90
2018-11-01T00:12:30.366Z,99.90
2018-11-01T00:14:58.832Z,99.90
2018-11-01T00:17:27.341Z,99.90
2018-11-01T00:19:55.821Z,99.90
2018-11-01T00:22:26.190Z,99.90
2018-11-01T00:24:54.661Z,99.90
2018-11-01T00:27:23.199Z,99.90
2018-11-01T00:29:51.644Z,99.90
2018-11-01T00:32:20.912Z,99.90
2018-11-01T00:34:49.363Z,99.90
2018-11-01T00:37:17.893Z,99.90
2018-11-01T00:39:46.429Z,99.90
2018-11-01T00:42:14.865Z,99.70
2018-11-01T00:44:43.366Z,99.60
2018-11-01T00:47:11.824Z,99.60
2018-11-01T00:49:40.317Z,99.70
2018-11-01T00:52:08.811Z,99.80
2018-11-01T00:54:37.346Z,99.80
2018-11-01T00:57:06.095Z,99.90
2018-11-01T00:59:34.625Z,99.90
2018-11-01T01:02:03.095Z,99.90
2018-11-01T01:04:32.629Z,99.90
2018-11-01T01:07:07.523Z,99.90
2018-11-01T01:09:37.027Z,99.90
2018-11-01T01:12:06.380Z,99.70
2018-11-01T01:14:34.895Z,99.60
2018-11-01T01:17:03.355Z,99.60
2018-11-01T01:19:31.854Z,99.20
2018-11-01T01:22:00.346Z,99.30
2018-11-01T01:24:28.850Z,99.10
2018-11-01T01:26:57.344Z,99.20
2018-11-01T01:29:25.784Z,99.50
2018-11-01T01:31:54.234Z,99.20
2018-11-01T01:34:22.745Z,99.60
2018-11-01T01:36:51.244Z,99.70
2018-11-01T01:39:19.660Z,99.70
2018-11-01T01:41:48.160Z,99.90
2018-11-01T01:44:16.631Z,99.80
2018-11-01T01:46:45.120Z,99.70
2018-11-01T01:49:13.854Z,99.30
2018-11-01T01:51:42.385Z,99.70
2018-11-01T01:54:10.882Z,99.50
2018-11-01T01:56:39.379Z,99.60
2018-11-01T01:59:08.500Z,99.60
2018-11-01T02:01:36.995Z,99.50
2018-11-01T02:04:05.915Z,99.70
2018-11-01T02:06:34.402Z,99.60
2018-11-01T02:09:02.954Z,99.40
2018-11-01T02:11:31.535Z,99.40
2018-11-01T02:13:59.987Z,99.70
2018-11-01T02:16:28.537Z,99.90
2018-11-01T02:18:57.059Z,99.90
2018-11-01T02:21:25.574Z,99.90
2018-11-01T02:23:54.092Z,99.90
2018-11-01T02:26:22.589Z,99.90
2018-11-01T02:28:51.040Z,99.90
2018-11-01T02:31:19.485Z,99.90
2018-11-01T02:33:47.902Z,99.90
2018-11-01T02:36:16.502Z,99.90
2018-11-01T02:38:45.056Z,99.90
2018-11-01T02:41:13.550Z,99.90
2018-11-01T02:43:41.964Z,99.90
2018-11-01T02:46:10.504Z,99.90
2018-11-01T02:48:38.954Z,99.90
2018-11-01T02:51:07.708Z,99.90
2018-11-01T02:53:36.169Z,99.90
2018-11-01T02:56:04.741Z,99.90
2018-11-01T02:58:33.309Z,99.90
2018-11-01T03:01:02.745Z,99.90
2018-11-01T03:03:31.237Z,99.90
2018-11-01T03:05:59.732Z,99.90
2018-11-01T03:08:28.252Z,99.90
2018-11-01T03:10:56.718Z,99.90
2018-11-01T03:13:25.148Z,99.90
2018-11-01T03:15:53.617Z,99.90
2018-11-01T03:18:22.098Z,99.90
2018-11-01T03:20:50.659Z,99.90
2018-11-01T03:23:19.127Z,99.90
2018-11-01T03:25:47.606Z,99.90
2018-11-01T03:28:16.127Z,99.90
2018-11-01T03:30:44.704Z,99.90
2018-11-01T03:33:13.160Z,99.90
2018-11-01T03:35:41.734Z,99.90
2018-11-01T03:38:10.892Z,99.90
2018-11-01T03:40:39.347Z,99.90
2018-11-01T03:43:07.911Z,99.90
2018-11-01T03:45:36.408Z,99.90
2018-11-01T03:48:05.110Z,99.90
2018-11-01T03:50:34.245Z,99.90
2018-11-01T03:53:02.846Z,99.90
2018-11-01T03:55:31.387Z,99.90
2018-11-01T03:57:59.832Z,99.90
2018-11-01T04:00:28.337Z,99.90
2018-11-01T04:02:56.841Z,99.90
2018-11-01T04:05:26.174Z,99.90
2018-11-01T04:07:54.699Z,99.90
2018-11-01T04:10:23.186Z,99.90
2018-11-01T04:12:51.701Z,99.90
2018-11-01T04:15:20.283Z,99.90
2018-11-01T04:17:48.767Z,99.90
2018-11-01T04:20:17.262Z,99.90
2018-11-01T04:22:45.724Z,99.90
2018-11-01T04:25:14.367Z,99.90
2018-11-01T04:27:43.326Z,99.90
2018-11-01T04:30:12.572Z,99.90
2018-11-01T04:32:41.048Z,99.90
2018-11-01T04:35:10.013Z,99.90
2018-11-01T04:37:38.713Z,99.90
2018-11-01T04:40:07.695Z,99.90
2018-11-01T04:42:36.178Z,99.90
2018-11-01T04:45:05.077Z,99.90
2018-11-01T04:47:33.641Z,99.90
2018-11-01T04:50:02.139Z,99.90
2018-11-01T04:52:30.616Z,99.90
2018-11-01T04:54:59.146Z,99.90
2018-11-01T04:57:27.631Z,99.90
2018-11-01T04:59:56.115Z,99.90
2018-11-01T05:02:24.633Z,99.90
2018-11-01T05:04:53.209Z,99.90
2018-11-01T05:07:21.618Z,99.90
2018-11-01T05:09:50.084Z,99.90
2018-11-01T05:12:18.628Z,99.90
2018-11-01T05:14:47.088Z,99.90
2018-11-01T05:17:15.601Z,99.90
2018-11-01T05:19:44.046Z,99.90
2018-11-01T05:22:12.684Z,99.90
2018-11-01T05:24:41.289Z,99.90
2018-11-01T05:27:09.768Z,99.90
2018-11-01T05:29:38.387Z,99.90
2018-11-01T05:32:06.830Z,99.90
2018-11-01T05:34:36.835Z,99.90
2018-11-01T05:37:05.884Z,99.90
2018-11-01T05:39:34.324Z,99.90
2018-11-01T05:42:02.876Z,99.90
2018-11-01T05:44:31.357Z,99.90
2018-11-01T05:46:59.817Z,99.90
2018-11-01T05:49:28.280Z,99.90
2018-11-01T05:51:56.876Z,99.90
2018-11-01T05:54:25.360Z,99.90
2018-11-01T05:56:53.940Z,99.90
2018-11-01T05:59:22.404Z,99.90
2018-11-01T06:01:53.033Z,99.90
2018-11-01T06:04:21.540Z,99.90
2018-11-01T06:06:50.010Z,99.90
2018-11-01T06:09:23.874Z,99.90
2018-11-01T06:11:52.358Z,99.90
2018-11-01T06:14:21.418Z,99.90
2018-11-01T06:16:49.956Z,99.90
2018-11-01T06:19:18.421Z,99.90
2018-11-01T06:21:46.896Z,99.90
2018-11-01T06:24:15.960Z,99.90
2018-11-01T06:26:44.444Z,99.90
2018-11-01T06:29:12.924Z,99.90
2018-11-01T06:33:10.832Z,99.90
2018-11-01T06:35:41.677Z,99.90
2018-11-01T06:38:10.205Z,99.90
2018-11-01T06:40:38.779Z,99.90
2018-11-01T06:43:07.253Z,99.90
2018-11-01T06:45:35.738Z,99.90
2018-11-01T06:48:04.222Z,99.90
2018-11-01T06:50:32.790Z,99.90
2018-11-01T06:53:01.212Z,99.90
2018-11-01T06:55:29.738Z,99.90
2018-11-01T06:57:58.197Z,99.90
2018-11-01T07:00:27.548Z,99.90
2018-11-01T07:02:56.016Z,99.90
2018-11-01T07:05:24.475Z,99.90
2018-11-01T07:07:52.943Z,99.90
2018-11-01T07:10:21.438Z,99.90
2018-11-01T07:12:50.143Z,99.90
2018-11-01T07:15:18.643Z,99.90
2018-11-01T07:17:47.215Z,99.90
2018-11-01T07:20:15.967Z,99.90
2018-11-01T07:22:45.056Z,99.90
2018-11-01T07:25:15.442Z,99.90
2018-11-01T07:27:43.934Z,99.90
2018-11-01T07:30:15.220Z,99.90
2018-11-01T07:32:43.764Z,99.90
2018-11-01T07:35:12.926Z,99.90
2018-11-01T07:37:42.616Z,99.90
2018-11-01T07:40:13.688Z,99.90
2018-11-01T07:42:42.175Z,99.90
2018-11-01T07:45:11.814Z,99.90
2018-11-01T07:47:41.255Z,99.90
2018-11-01T07:50:10.774Z,99.90
2018-11-01T07:52:39.753Z,99.90
2018-11-01T07:55:09.885Z,99.90
2018-11-01T07:57:38.387Z,99.90
2018-11-01T08:00:10.882Z,99.90
2018-11-01T08:02:39.407Z,99.90
2018-11-01T08:05:09.235Z,99.90
2018-11-01T08:07:37.717Z,99.90
2018-11-01T08:10:09.023Z,99.90
2018-11-01T08:12:37.526Z,99.90
2018-11-01T08:15:08.463Z,99.90
2018-11-01T08:17:36.959Z,99.90
2018-11-01T08:20:06.615Z,99.90
2018-11-01T08:22:34.860Z,99.90
2018-11-01T08:25:03.345Z,99.70
2018-11-01T08:27:31.864Z,99.40
2018-11-01T08:30:01.298Z,99.30
2018-11-01T08:32:30.055Z,99.20
2018-11-01T08:34:58.546Z,99.00
2018-11-01T08:37:27.125Z,98.90
2018-11-01T08:39:55.665Z,98.70
2018-11-01T08:42:24.172Z,98.80
2018-11-01T08:44:53.616Z,98.70
2018-11-01T08:47:22.116Z,98.70
2018-11-01T08:49:50.574Z,98.30
2018-11-01T08:52:19.060Z,98.70
2018-11-01T08:54:47.589Z,98.30
2018-11-01T08:57:16.056Z,98.40
2018-11-01T08:59:44.519Z,98.20
2018-11-01T09:02:13.061Z,98.50
2018-11-01T09:04:41.530Z,97.80
2018-11-01T09:07:10.274Z,98.00
2018-11-01T09:09:38.761Z,98.00
2018-11-01T09:12:07.291Z,97.90
2018-11-01T09:14:36.639Z,97.50
2018-11-01T09:17:05.709Z,97.50
2018-11-01T09:19:34.816Z,97.40
2018-11-01T09:22:03.317Z,97.30
2018-11-01T09:24:32.737Z,97.50
2018-11-01T09:27:01.542Z,96.70
2018-11-01T09:29:29.952Z,96.50
2018-11-01T09:31:58.442Z,96.80
2018-11-01T09:34:26.902Z,96.40
2018-11-01T09:36:55.404Z,96.60
2018-11-01T09:39:23.852Z,96.50
2018-11-01T09:41:52.320Z,95.80
2018-11-01T09:44:21.315Z,96.40
2018-11-01T09:46:50.142Z,96.30
2018-11-01T09:49:18.390Z,96.10
2018-11-01T09:51:46.919Z,96.30
2018-11-01T09:54:15.399Z,96.40
2018-11-01T09:56:43.875Z,96.00
2018-11-01T09:59:12.415Z,96.00
2018-11-01T10:01:40.851Z,95.60
2018-11-01T10:04:10.173Z,95.60
2018-11-01T10:06:38.721Z,95.60
2018-11-01T10:09:08.285Z,95.60
2018-11-01T10:11:37.423Z,95.50
2018-11-01T10:14:06.593Z,95.50
2018-11-01T10:16:35.634Z,95.50
2018-11-01T10:19:03.896Z,95.30
2018-11-01T10:21:32.544Z,95.40
2018-11-01T10:24:00.992Z,95.60
2018-11-01T10:26:29.491Z,95.40
2018-11-01T10:28:58.005Z,95.50
2018-11-01T10:31:26.509Z,95.30
2018-11-01T10:33:55.105Z,95.80
2018-11-01T10:36:24.403Z,95.40
2018-11-01T10:38:52.864Z,95.80
2018-11-01T10:41:21.392Z,95.90
2018-11-01T10:43:49.847Z,95.70
2018-11-01T10:46:18.295Z,95.60
2018-11-01T10:48:46.813Z,95.90
2018-11-01T10:51:15.308Z,96.00
2018-11-01T10:53:43.879Z,96.10
2018-11-01T10:56:12.332Z,96.10
2018-11-01T10:58:40.838Z,96.00
2018-11-01T11:02:17.904Z,96.50
2018-11-01T11:04:46.364Z,96.10
2018-11-01T11:07:14.852Z,96.30
2018-11-01T11:09:43.348Z,96.50
2018-11-01T11:12:11.861Z,96.80
2018-11-01T11:14:40.481Z,96.30
2018-11-01T11:17:08.856Z,96.40
2018-11-01T11:19:38.125Z,96.60
2018-11-01T11:22:07.568Z,96.30
2018-11-01T11:24:36.134Z,96.50
2018-11-01T11:27:04.723Z,96.70
2018-11-01T11:29:33.959Z,96.80
2018-11-01T11:32:02.462Z,96.30
2018-11-01T11:34:30.983Z,96.60
2018-11-01T11:36:59.678Z,96.50
2018-11-01T11:39:28.200Z,96.40
2018-11-01T11:41:56.712Z,96.60
2018-11-01T11:44:25.188Z,96.20
2018-11-01T11:46:53.628Z,96.50
2018-11-01T11:49:22.081Z,96.50
2018-11-01T11:51:50.560Z,97.00
2018-11-01T11:54:19.000Z,96.80
2018-11-01T11:56:47.445Z,97.00
2018-11-01T11:59:16.668Z,96.80
2018-11-01T12:01:45.200Z,96.90
2018-11-01T12:04:13.708Z,96.80
2018-11-01T12:06:42.220Z,96.30
2018-11-01T12:09:10.748Z,96.80
2018-11-01T12:11:39.242Z,97.00
2018-11-01T12:14:07.810Z,97.10
2018-11-01T12:16:36.237Z,97.20
2018-11-01T12:19:04.893Z,97.00
2018-11-01T12:21:33.381Z,97.20
2018-11-01T12:24:01.915Z,96.90
2018-11-01T12:26:30.401Z,96.80
2018-11-01T12:28:58.973Z,96.90
2018-11-01T12:31:27.411Z,96.80
2018-11-01T12:33:56.009Z,96.80
2018-11-01T12:36:24.494Z,96.90
2018-11-01T12:38:53.003Z,97.00
2018-11-01T12:41:21.529Z,97.40
2018-11-01T12:43:50.009Z,97.40
2018-11-01T12:46:18.518Z,97.60
2018-11-01T12:48:47.005Z,97.90
2018-11-01T12:51:15.511Z,98.30
2018-11-01T12:53:43.996Z,97.90
2018-11-01T12:56:12.826Z,97.90
2018-11-01T12:58:41.277Z,98.50
2018-11-01T13:01:09.825Z,98.90
2018-11-01T13:03:38.326Z,99.20
2018-11-01T13:06:07.622Z,99.30
2018-11-01T13:08:36.132Z,99.40
2018-11-01T13:11:04.846Z,99.30
2018-11-01T13:13:33.377Z,99.10
2018-11-01T13:16:01.938Z,99.30
2018-11-01T13:18:30.393Z,99.20
2018-11-01T13:20:58.856Z,98.80
2018-11-01T13:23:27.320Z,99.40
2018-11-01T13:25:55.748Z,98.70
2018-11-01T13:28:24.208Z,98.50
2018-11-01T13:30:52.721Z,99.70
2018-11-01T13:33:21.265Z,99.20
2018-11-01T13:35:49.767Z,99.30
2018-11-01T13:38:18.269Z,99.20
2018-11-01T13:40:46.992Z,99.60
2018-11-01T13:43:15.245Z,99.60
2018-11-01T13:45:43.796Z,99.30
2018-11-01T13:48:12.507Z,99.70
2018-11-01T13:50:40.830Z,99.10
2018-11-01T13:53:09.284Z,99.40
2018-11-01T13:55:37.739Z,99.70
2018-11-01T13:58:06.277Z,99.80
2018-11-01T14:00:34.794Z,99.90
2018-11-01T14:03:03.258Z,99.90
2018-11-01T14:05:31.785Z,99.90
2018-11-01T14:08:00.228Z,99.90
2018-11-01T14:10:28.711Z,99.90
2018-11-01T14:12:57.318Z,99.90
2018-11-01T14:15:27.088Z,99.90
2018-11-01T14:17:55.873Z,99.90
2018-11-01T14:20:25.232Z,99.90
2018-11-01T14:22:53.833Z,99.90
2018-11-01T14:25:22.410Z,99.90
2018-11-01T14:27:51.889Z,99.90
2018-11-01T14:30:20.510Z,99.90
2018-11-01T14:32:49.059Z,99.90
2018-11-01T14:35:17.697Z,99.90
2018-11-01T14:37:46.280Z,99.90
2018-11-01T14:40:15.150Z,99.90
2018-11-01T14:42:43.671Z,99.90
2018-11-01T14:45:12.301Z,99.90
2018-11-01T14:47:40.964Z,99.90
2018-11-01T14:50:10.417Z,99.90
2018-11-01T14:52:39.420Z,99.90
2018-11-01T14:55:09.493Z,99.90
2018-11-01T14:57:38.873Z,99.90
2018-11-01T15:00:07.484Z,99.90
2018-11-01T15:02:37.097Z,99.90
2018-11-01T15:05:06.798Z,99.90
2018-11-01T15:07:35.326Z,99.90
2018-11-01T15:10:03.962Z,99.90
2018-11-01T15:12:32.839Z,99.90
2018-11-01T15:15:02.120Z,99.90
2018-11-01T15:17:30.626Z,99.90
2018-11-01T15:19:59.150Z,99.90
2018-11-01T15:22:27.660Z,99.90
2018-11-01T15:24:56.174Z,99.90
2018-11-01T15:27:24.799Z,99.90
2018-11-01T15:29:53.305Z,99.90
2018-11-01T15:32:27.348Z,99.90
2018-11-01T15:34:56.083Z,99.90
2018-11-01T15:37:25.388Z,99.90
2018-11-01T15:39:54.361Z,99.90
2018-11-01T15:42:23.472Z,99.90
2018-11-01T15:44:51.953Z,99.90
2018-11-01T15:47:20.459Z,99.90
2018-11-01T15:49:48.945Z,99.90
2018-11-01T15:52:17.440Z,99.90
2018-11-01T15:54:45.902Z,99.90
2018-11-01T15:57:14.370Z,99.90
2018-11-01T15:59:43.012Z,99.90
2018-11-01T16:02:11.426Z,99.90
2018-11-01T16:04:40.442Z,99.90
2018-11-01T16:07:08.913Z,99.90
2018-11-01T16:09:38.133Z,99.90
2018-11-01T16:12:06.657Z,99.90
2018-11-01T16:14:35.137Z,99.90
2018-11-01T16:17:03.629Z,99.90
2018-11-01T16:19:32.150Z,99.90
2018-11-01T16:22:00.635Z,99.90
2018-11-01T16:24:29.229Z,99.90
2018-11-01T16:26:57.665Z,99.90
2018-11-01T16:29:26.156Z,99.90
2018-11-01T16:31:54.708Z,99.90
2018-11-01T16:34:23.134Z,99.90
2018-11-01T16:36:52.570Z,99.90
2018-11-01T16:39:21.592Z,99.90
2018-11-01T16:41:50.046Z,99.90
2018-11-01T16:44:18.526Z,99.90
2018-11-01T16:46:46.976Z,99.90
2018-11-01T16:49:15.642Z,99.90
2018-11-01T16:51:44.137Z,99.90
2018-11-01T16:54:12.617Z,99.90
2018-11-01T16:56:41.121Z,99.90
2018-11-01T16:59:09.593Z,99.90
2018-11-01T17:01:38.283Z,99.90
2018-11-01T17:04:07.045Z,99.90
2018-11-01T17:06:35.481Z,99.90
2018-11-01T17:09:04.565Z,99.90
2018-11-01T17:11:33.116Z,99.90
2018-11-01T17:14:02.285Z,99.90
2018-11-01T17:16:30.894Z,99.90
2018-11-01T17:18:59.437Z,99.90
2018-11-01T17:21:29.249Z,99.90
2018-11-01T17:23:57.795Z,99.90
2018-11-01T17:26:26.213Z,99.90
2018-11-01T17:28:54.676Z,99.90
2018-11-01T17:31:23.808Z,99.90
2018-11-01T17:33:52.421Z,99.90
2018-11-01T17:36:20.855Z,99.90
2018-11-01T17:38:49.355Z,99.90
2018-11-01T17:41:17.814Z,99.90
2018-11-01T17:43:47.391Z,99.90
2018-11-01T17:46:16.036Z,99.90
2018-11-01T17:48:44.375Z,99.90
2018-11-01T17:51:12.861Z,99.90
2018-11-01T17:53:41.384Z,99.90
2018-11-01T17:56:09.841Z,99.90
2018-11-01T17:58:38.366Z,99.90
2018-11-01T18:01:07.508Z,99.90
2018-11-01T18:03:36.062Z,99.90
2018-11-01T18:06:04.710Z,99.90
2018-11-01T18:08:33.259Z,99.90
2018-11-01T18:11:01.627Z,99.90
2018-11-01T18:13:30.112Z,99.90
2018-11-01T18:15:58.525Z,99.90
2018-11-01T18:18:27.007Z,99.90
2018-11-01T18:20:55.471Z,99.90
2018-11-01T18:23:24.142Z,99.90
2018-11-01T18:25:52.463Z,99.90
2018-11-01T18:28:21.286Z,99.90
2018-11-01T18:30:49.782Z,99.90
2018-11-01T18:33:18.246Z,99.90
2018-11-01T18:35:46.713Z,99.90
2018-11-01T18:38:15.747Z,99.90
2018-11-01T18:40:44.255Z,99.90
2018-11-01T18:43:12.732Z,99.90
2018-11-01T18:45:41.228Z,99.90
2018-11-01T18:48:09.891Z,99.90
2018-11-01T18:50:38.296Z,99.90
2018-11-01T18:53:06.736Z,99.90
2018-11-01T18:55:35.388Z,99.90
2018-11-01T18:58:03.965Z,99.90
2018-11-01T19:00:32.495Z,99.90
2018-11-01T19:03:01.925Z,99.90
2018-11-01T19:05:30.501Z,99.90
2018-11-01T19:07:59.046Z,99.90
2018-11-01T19:10:27.527Z,99.90
2018-11-01T19:12:56.023Z,99.90
2018-11-01T19:15:24.524Z,99.90
2018-11-01T19:17:54.264Z,99.90
2018-11-01T19:20:22.773Z,99.90
2018-11-01T19:22:51.237Z,99.90
2018-11-01T19:25:19.711Z,99.90
2018-11-01T19:27:48.302Z,99.90
2018-11-01T19:30:16.746Z,99.90
2018-11-01T19:32:45.234Z,99.90
2018-11-01T19:35:14.166Z,99.90
2018-11-01T19:37:44.478Z,99.90
2018-11-01T19:40:15.618Z,99.90
2018-11-01T19:42:44.512Z,99.90
2018-11-01T19:45:13.046Z,99.90
2018-11-01T19:47:41.558Z,99.90
2018-11-01T19:50:12.228Z,99.90
2018-11-01T19:52:40.815Z,99.90
2018-11-01T19:55:10.404Z,99.90
2018-11-01T19:57:38.897Z,99.90
2018-11-01T20:00:09.765Z,99.90
2018-11-01T20:02:38.378Z,99.90
2018-11-01T20:05:07.551Z,99.90
2018-11-01T20:07:36.005Z,99.90
2018-11-01T20:10:04.819Z,99.90
2018-11-01T20:12:33.228Z,99.90
2018-11-01T20:15:01.769Z,99.90
2018-11-01T20:17:30.312Z,99.90
2018-11-01T20:19:58.891Z,99.90
2018-11-01T20:22:27.369Z,99.90
2018-11-01T20:24:55.898Z,99.90
2018-11-01T20:27:24.404Z,99.90
2018-11-01T20:29:52.938Z,99.90
2018-11-01T20:32:21.438Z,99.90
2018-11-01T20:34:49.898Z,99.90
2018-11-01T20:37:18.425Z,99.90
2018-11-01T20:39:46.932Z,99.90
2018-11-01T20:42:15.407Z,99.90
2018-11-01T20:44:43.955Z,99.90
2018-11-01T20:47:12.442Z,99.90
2018-11-01T20:49:41.771Z,99.90
2018-11-01T20:52:10.292Z,99.90
2018-11-01T20:54:38.867Z,99.90
2018-11-01T20:57:07.613Z,99.90
2018-11-01T20:59:36.653Z,99.90
2018-11-01T21:02:05.157Z,99.90
2018-11-01T21:04:34.258Z,99.90
2018-11-01T21:07:02.755Z,99.90
2018-11-01T21:09:31.245Z,99.90
2018-11-01T21:11:59.912Z,99.90
2018-11-01T21:14:28.370Z,99.90
2018-11-01T21:16:57.038Z,99.90
2018-11-01T21:19:25.481Z,99.90
2018-11-01T21:21:54.014Z,99.90
2018-11-01T21:24:22.503Z,99.90
2018-11-01T21:26:51.049Z,99.90
2018-11-01T21:29:19.534Z,99.90
2018-11-01T21:31:48.200Z,99.90
2018-11-01T21:34:18.299Z,99.90
2018-11-01T21:36:46.785Z,99.90
2018-11-01T21:39:15.365Z,99.90
2018-11-01T21:41:43.903Z,99.90
2018-11-01T21:44:12.414Z,99.90
2018-11-01T21:46:40.914Z,99.90
2018-11-01T21:49:09.486Z,99.90
2018-11-01T21:51:37.986Z,99.90
2018-11-01T21:54:06.491Z,99.90
2018-11-01T21:56:35.007Z,99.90
2018-11-01T21:59:03.579Z,99.90
2018-11-01T22:01:32.089Z,99.90
2018-11-01T22:04:00.601Z,99.90
2018-11-01T22:06:29.057Z,99.90
2018-11-01T22:08:57.543Z,99.90
2018-11-01T22:11:26.060Z,99.90
2018-11-01T22:13:54.558Z,99.90
2018-11-01T22:16:23.091Z,99.90
2018-11-01T22:18:51.573Z,99.90
2018-11-01T22:21:20.130Z,99.90
2018-11-01T22:23:48.638Z,99.90
2018-11-01T22:26:17.158Z,99.90
2018-11-01T22:28:45.784Z,99.90
2018-11-01T22:31:14.177Z,99.90
2018-11-01T22:33:42.714Z,99.90
2018-11-01T22:36:11.196Z,99.90
2018-11-01T22:41:13.855Z,99.90
2018-11-01T22:43:42.369Z,99.90
2018-11-01T22:46:10.918Z,99.90
2018-11-01T22:48:39.410Z,99.90
2018-11-01T22:51:07.916Z,99.90
2018-11-01T22:53:36.531Z,99.90
2018-11-01T22:56:05.071Z,99.90
2018-11-01T22:58:33.578Z,99.90
2018-11-01T23:01:02.042Z,99.90
2018-11-01T23:03:30.552Z,99.90
2018-11-01T23:05:59.146Z,99.90
2018-11-01T23:08:27.715Z,99.90
2018-11-01T23:10:56.250Z,99.90
2018-11-01T23:13:24.801Z,99.90
2018-11-01T23:15:53.359Z,99.90
2018-11-01T23:18:21.863Z,99.90
2018-11-01T23:20:50.388Z,99.90
2018-11-01T23:23:18.865Z,99.90
2018-11-01T23:25:47.425Z,99.90
2018-11-01T23:28:16.057Z,99.90
2018-11-01T23:30:44.558Z,99.90
2018-11-01T23:33:14.042Z,99.90
2018-11-01T23:35:42.566Z,99.90
2018-11-01T23:38:17.110Z,99.90
2018-11-01T23:40:50.731Z,99.90
2018-11-01T23:43:24.547Z,99.90
2018-11-01T23:45:58.434Z,99.90
2018-11-01T23:48:26.131Z,99.90
2018-11-01T23:51:01.632Z,99.90
2018-11-01T23:53:32.224Z,99.90
2018-11-01T23:56:00.899Z,99.90
2018-11-01T23:58:29.402Z,99.90
